createdAt,value
2023-04-26T00:01:59.021Z,7.47
2023-04-26T00:04:26.026Z,7.42
2023-04-26T00:06:53.100Z,7.40
2023-04-26T00:09:20.015Z,7.41
2023-04-26T00:11:47.499Z,7.39
2023-04-26T00:14:15.413Z,7.36
2023-04-26T00:16:42.635Z,7.40
2023-04-26T00:19:10.402Z,7.34
2023-04-26T00:21:37.490Z,7.36
2023-04-26T00:24:05.979Z,7.31
2023-04-26T00:26:34.802Z,7.22
2023-04-26T00:29:03.227Z,7.18
2023-04-26T00:31:30.285Z,7.13
2023-04-26T00:33:57.325Z,7.09
2023-04-26T00:36:24.277Z,7.12
2023-04-26T00:38:51.456Z,7.08
2023-04-26T00:41:18.429Z,7.08
2023-04-26T00:43:45.924Z,7.08
2023-04-26T00:46:13.175Z,7.07
2023-04-26T00:48:40.229Z,7.04
2023-04-26T00:51:08.224Z,6.98
2023-04-26T00:53:35.831Z,6.95
2023-04-26T00:56:03.778Z,6.95
2023-04-26T00:58:30.983Z,6.96
2023-04-26T01:00:58.880Z,6.93
2023-04-26T01:03:26.959Z,6.92
2023-04-26T01:05:54.991Z,6.91
2023-04-26T01:08:23.950Z,6.94
2023-04-26T01:10:51.342Z,6.92
2023-04-26T01:13:18.603Z,6.85
2023-04-26T01:15:49.379Z,6.83
2023-04-26T01:18:16.410Z,6.80
2023-04-26T01:20:43.380Z,6.79
2023-04-26T01:23:11.932Z,6.76
2023-04-26T01:25:39.266Z,6.74
2023-04-26T01:28:06.407Z,6.74
2023-04-26T01:30:33.620Z,6.74
2023-04-26T01:33:00.518Z,6.71
2023-04-26T01:35:27.766Z,6.70
2023-04-26T01:37:55.012Z,6.67
2023-04-26T01:40:22.224Z,6.64
2023-04-26T01:42:49.322Z,6.63
2023-04-26T01:45:16.369Z,6.60
2023-04-26T01:47:43.394Z,6.58
2023-04-26T01:50:11.163Z,6.54
2023-04-26T01:52:38.038Z,6.51
2023-04-26T01:55:05.754Z,6.50
2023-04-26T01:57:32.622Z,6.49
2023-04-26T01:59:59.680Z,6.44
2023-04-26T02:02:26.972Z,6.42
2023-04-26T02:04:54.008Z,6.42
2023-04-26T02:07:20.975Z,6.41
2023-04-26T02:09:48.095Z,6.35
2023-04-26T02:12:15.069Z,6.38
2023-04-26T02:14:41.972Z,6.33
2023-04-26T02:17:11.978Z,6.29
2023-04-26T02:19:39.242Z,6.25
2023-04-26T02:22:06.641Z,6.23
2023-04-26T02:24:33.798Z,6.20
2023-04-26T02:27:04.041Z,6.14
2023-04-26T02:29:43.860Z,6.15
2023-04-26T02:32:12.959Z,6.10
2023-04-26T02:34:39.860Z,6.09
2023-04-26T02:37:07.823Z,6.06
2023-04-26T02:39:35.044Z,6.07
2023-04-26T02:42:02.179Z,6.04
2023-04-26T02:44:32.281Z,6.03
2023-04-26T02:46:59.763Z,6.11
2023-04-26T02:49:26.775Z,6.10
2023-04-26T02:51:53.670Z,6.10
2023-04-26T02:54:20.806Z,6.10
2023-04-26T02:56:47.723Z,6.10
2023-04-26T02:59:14.669Z,6.12
2023-04-26T03:01:41.708Z,6.11
2023-04-26T03:04:08.767Z,6.10
2023-04-26T03:06:36.321Z,6.11
2023-04-26T03:09:03.286Z,6.11
2023-04-26T03:11:30.318Z,6.07
2023-04-26T03:13:57.188Z,6.11
2023-04-26T03:16:24.337Z,6.07
2023-04-26T03:18:51.598Z,6.08
2023-04-26T03:21:18.670Z,6.06
2023-04-26T03:23:45.617Z,6.05
2023-04-26T03:26:12.745Z,6.05
2023-04-26T03:28:39.691Z,6.04
2023-04-26T03:31:06.750Z,6.05
2023-04-26T03:33:33.700Z,6.04
2023-04-26T03:36:00.667Z,6.03
2023-04-26T03:38:27.734Z,6.06
2023-04-26T03:40:54.672Z,6.05
2023-04-26T03:43:21.708Z,6.05
2023-04-26T03:45:49.950Z,6.05
2023-04-26T03:48:17.449Z,6.04
2023-04-26T03:50:46.203Z,6.07
2023-04-26T03:53:13.201Z,6.05
2023-04-26T03:55:40.436Z,6.06
2023-04-26T03:58:08.446Z,6.07
2023-04-26T04:00:39.408Z,6.08
2023-04-26T04:03:07.854Z,6.04
2023-04-26T04:05:35.206Z,6.08
2023-04-26T04:08:02.462Z,6.09
2023-04-26T04:10:29.738Z,6.08
2023-04-26T04:12:56.628Z,6.09
2023-04-26T04:15:23.718Z,6.05
2023-04-26T04:17:50.656Z,6.04
2023-04-26T04:20:17.667Z,6.04
2023-04-26T04:22:44.928Z,6.03
2023-04-26T04:25:12.017Z,6.02
2023-04-26T04:27:39.156Z,6.01
2023-04-26T04:30:08.764Z,5.98
2023-04-26T04:32:37.161Z,5.98
2023-04-26T04:35:05.617Z,5.99
2023-04-26T04:37:35.681Z,6.00
2023-04-26T04:40:02.643Z,5.99
2023-04-26T04:42:29.603Z,5.97
2023-04-26T04:44:57.276Z,5.99
2023-04-26T04:47:24.885Z,5.98
2023-04-26T04:49:51.920Z,5.98
2023-04-26T04:52:20.353Z,5.97
2023-04-26T04:54:47.696Z,5.94
2023-04-26T04:57:14.622Z,5.93
2023-04-26T04:59:41.698Z,5.94
2023-04-26T05:02:08.625Z,5.93
2023-04-26T05:04:36.318Z,5.94
2023-04-26T05:07:03.365Z,5.94
2023-04-26T05:09:30.264Z,5.96
2023-04-26T05:11:57.610Z,5.94
2023-04-26T05:14:24.504Z,5.97
2023-04-26T05:16:51.512Z,6.00
2023-04-26T05:19:18.629Z,6.03
2023-04-26T05:21:45.526Z,6.04
2023-04-26T05:24:12.425Z,6.09
2023-04-26T05:26:39.349Z,6.09
2023-04-26T05:29:06.535Z,6.15
2023-04-26T05:31:33.706Z,6.15
2023-04-26T05:34:00.645Z,6.18
2023-04-26T05:36:29.986Z,6.17
2023-04-26T05:38:57.003Z,6.21
2023-04-26T05:41:24.079Z,6.24
2023-04-26T05:43:51.506Z,6.27
2023-04-26T05:46:18.594Z,6.31
2023-04-26T05:48:46.332Z,6.34
2023-04-26T05:51:13.221Z,6.36
2023-04-26T05:53:40.454Z,6.41
2023-04-26T05:56:07.712Z,6.47
2023-04-26T05:58:34.698Z,6.50
2023-04-26T06:01:01.960Z,6.55
2023-04-26T06:03:29.168Z,6.56
2023-04-26T06:05:56.748Z,6.59
2023-04-26T06:08:23.697Z,6.59
2023-04-26T06:10:50.879Z,6.63
2023-04-26T06:13:18.122Z,6.65
2023-04-26T06:15:45.587Z,6.67
2023-04-26T06:18:12.860Z,6.72
2023-04-26T06:20:39.842Z,6.78
2023-04-26T06:23:06.959Z,6.82
2023-04-26T06:25:34.521Z,6.89
2023-04-26T06:28:01.461Z,6.93
2023-04-26T06:30:28.513Z,6.98
2023-04-26T06:32:55.799Z,6.99
2023-04-26T06:35:24.964Z,7.05
2023-04-26T06:37:52.284Z,7.11
2023-04-26T06:40:19.305Z,7.15
2023-04-26T06:42:46.449Z,7.16
2023-04-26T06:45:13.394Z,7.23
2023-04-26T06:47:40.800Z,7.29
2023-04-26T06:50:08.866Z,7.38
2023-04-26T06:52:35.802Z,7.45
2023-04-26T06:55:03.913Z,7.52
2023-04-26T06:57:31.098Z,7.57
2023-04-26T06:59:58.458Z,7.61
2023-04-26T07:02:25.706Z,7.67
2023-04-26T07:04:53.346Z,7.79
2023-04-26T07:07:20.544Z,7.88
2023-04-26T07:09:47.860Z,7.97
2023-04-26T07:12:14.978Z,8.09
2023-04-26T07:14:43.582Z,8.18
2023-04-26T07:17:11.076Z,8.28
2023-04-26T07:19:37.995Z,8.31
2023-04-26T07:22:05.282Z,8.33
2023-04-26T07:24:32.402Z,8.41
2023-04-26T07:26:59.424Z,8.39
2023-04-26T07:29:26.486Z,8.45
2023-04-26T07:31:53.366Z,8.47
2023-04-26T07:34:20.340Z,8.54
2023-04-26T07:36:47.217Z,8.59
2023-04-26T07:39:15.688Z,8.61
2023-04-26T07:41:44.188Z,8.64
2023-04-26T07:44:11.693Z,8.71
2023-04-26T07:46:38.674Z,8.77
2023-04-26T07:49:05.630Z,8.80
2023-04-26T07:51:32.590Z,8.83
2023-04-26T07:53:59.555Z,8.91
2023-04-26T07:56:26.464Z,8.95
2023-04-26T07:58:53.427Z,9.02
2023-04-26T08:01:20.326Z,9.11
2023-04-26T08:03:49.355Z,9.20
2023-04-26T08:06:17.023Z,9.29
2023-04-26T08:08:50.918Z,9.38
2023-04-26T08:11:18.491Z,9.46
2023-04-26T08:13:45.458Z,9.53
2023-04-26T08:16:12.813Z,9.60
2023-04-26T08:18:39.952Z,9.65
2023-04-26T08:21:07.154Z,9.74
2023-04-26T08:23:38.532Z,9.83
2023-04-26T08:26:06.738Z,9.88
2023-04-26T08:28:33.820Z,9.95
2023-04-26T08:31:00.734Z,10.04
2023-04-26T08:33:27.780Z,10.11
2023-04-26T08:35:55.261Z,10.17
2023-04-26T08:38:24.973Z,10.22
2023-04-26T08:40:52.124Z,10.24
2023-04-26T08:43:19.023Z,10.29
2023-04-26T08:45:47.539Z,10.29
2023-04-26T08:48:18.666Z,10.34
2023-04-26T08:50:49.633Z,10.44
2023-04-26T08:53:21.971Z,10.60
2023-04-26T08:55:52.220Z,10.69
2023-04-26T08:58:19.543Z,10.84
2023-04-26T09:00:46.842Z,10.96
2023-04-26T09:03:14.239Z,11.07
2023-04-26T09:05:45.942Z,11.16
2023-04-26T09:08:22.894Z,11.29
2023-04-26T09:10:49.944Z,11.40
2023-04-26T09:13:16.854Z,11.52
2023-04-26T09:15:43.797Z,11.56
2023-04-26T09:18:24.204Z,11.64
2023-04-26T09:21:09.237Z,11.70
2023-04-26T09:23:36.297Z,11.68
2023-04-26T09:26:25.231Z,11.89
2023-04-26T09:29:14.007Z,12.00
2023-04-26T09:31:49.712Z,12.07
2023-04-26T09:34:17.202Z,12.03
2023-04-26T09:36:58.046Z,12.20
2023-04-26T09:39:37.892Z,12.29
2023-04-26T09:42:06.239Z,12.44
2023-04-26T09:44:33.963Z,12.53
2023-04-26T09:47:06.217Z,12.57
2023-04-26T09:49:48.757Z,12.68
2023-04-26T09:52:16.576Z,12.66
2023-04-26T09:54:47.701Z,12.72
2023-04-26T09:57:17.577Z,12.77
2023-04-26T09:59:49.382Z,12.76
2023-04-26T10:02:20.691Z,12.78
2023-04-26T10:04:51.036Z,12.84
2023-04-26T10:07:21.972Z,12.86
2023-04-26T10:09:50.007Z,12.90
2023-04-26T10:12:19.653Z,12.95
2023-04-26T10:14:47.592Z,12.96
2023-04-26T10:17:15.212Z,12.92
2023-04-26T10:19:47.312Z,12.88
2023-04-26T10:22:40.319Z,12.86
2023-04-26T10:25:10.156Z,12.83
2023-04-26T10:27:47.241Z,12.81
2023-04-26T10:30:23.316Z,12.82
2023-04-26T10:32:56.152Z,12.82
2023-04-26T10:35:29.394Z,12.86
2023-04-26T10:38:02.323Z,12.90
2023-04-26T10:40:36.416Z,12.90
2023-04-26T10:43:10.080Z,12.94
2023-04-26T10:45:38.487Z,12.99
2023-04-26T10:48:29.048Z,13.09
2023-04-26T10:51:02.416Z,13.24
2023-04-26T10:53:53.415Z,13.32
2023-04-26T10:56:23.848Z,13.43
2023-04-26T10:59:30.657Z,13.32
2023-04-26T11:02:01.508Z,13.64
2023-04-26T11:04:54.348Z,13.71
2023-04-26T11:07:38.523Z,13.82
2023-04-26T11:10:12.717Z,13.94
2023-04-26T11:12:42.704Z,14.05
2023-04-26T11:15:13.202Z,14.15
2023-04-26T11:17:40.418Z,14.24
2023-04-26T11:20:16.604Z,14.29
2023-04-26T11:22:43.916Z,14.30
2023-04-26T11:25:13.553Z,14.26
2023-04-26T11:27:43.710Z,14.22
2023-04-26T11:30:11.964Z,14.26
2023-04-26T11:32:38.914Z,14.30
2023-04-26T11:35:06.741Z,14.36
2023-04-26T11:37:35.096Z,14.29
2023-04-26T11:40:02.253Z,14.40
2023-04-26T11:42:29.165Z,14.48
2023-04-26T11:44:57.783Z,14.47
2023-04-26T11:47:26.354Z,14.42
2023-04-26T11:49:53.792Z,14.51
2023-04-26T11:52:20.792Z,14.59
2023-04-26T11:54:47.745Z,14.62
2023-04-26T11:57:19.770Z,14.79
2023-04-26T11:59:47.100Z,14.77
2023-04-26T12:02:14.592Z,14.84
2023-04-26T12:04:42.063Z,14.79
2023-04-26T12:07:09.904Z,14.73
2023-04-26T12:09:44.786Z,14.74
2023-04-26T12:12:11.769Z,14.68
2023-04-26T12:14:40.606Z,14.81
2023-04-26T12:17:08.931Z,14.93
2023-04-26T12:19:41.263Z,14.89
2023-04-26T12:22:09.395Z,14.92
2023-04-26T12:24:37.132Z,14.87
2023-04-26T12:27:08.990Z,14.90
2023-04-26T12:29:36.216Z,15.01
2023-04-26T12:32:03.927Z,15.08
2023-04-26T12:34:31.311Z,15.17
2023-04-26T12:36:58.391Z,15.18
2023-04-26T12:39:25.643Z,15.12
2023-04-26T12:41:52.622Z,15.07
2023-04-26T12:44:21.881Z,15.06
2023-04-26T12:46:49.490Z,15.02
2023-04-26T12:49:16.826Z,15.04
2023-04-26T12:51:43.721Z,14.93
2023-04-26T12:54:10.664Z,14.79
2023-04-26T12:56:44.164Z,14.75
2023-04-26T12:59:11.351Z,14.74
2023-04-26T13:01:38.336Z,14.38
2023-04-26T13:04:06.422Z,14.45
2023-04-26T13:06:34.763Z,14.43
2023-04-26T13:09:02.176Z,14.35
2023-04-26T13:11:29.128Z,14.36
2023-04-26T13:13:56.198Z,14.27
2023-04-26T13:16:23.291Z,14.27
2023-04-26T13:18:50.211Z,14.30
2023-04-26T13:21:17.690Z,14.42
2023-04-26T13:23:44.638Z,14.52
2023-04-26T13:26:11.690Z,14.54
2023-04-26T13:28:38.616Z,14.56
2023-04-26T13:31:05.564Z,14.62
2023-04-26T13:33:32.994Z,14.58
2023-04-26T13:35:59.875Z,14.58
2023-04-26T13:38:27.143Z,14.67
2023-04-26T13:40:54.389Z,14.62
2023-04-26T13:43:21.360Z,14.52
2023-04-26T13:45:48.433Z,14.70
2023-04-26T13:48:15.840Z,14.92
2023-04-26T13:50:42.975Z,15.00
2023-04-26T13:53:10.313Z,15.10
2023-04-26T13:55:37.218Z,15.13
2023-04-26T13:58:04.112Z,15.00
2023-04-26T14:00:31.174Z,15.05
2023-04-26T14:02:59.123Z,15.01
2023-04-26T14:05:26.126Z,14.97
2023-04-26T14:07:54.943Z,14.92
2023-04-26T14:10:22.273Z,14.92
2023-04-26T14:12:49.575Z,14.93
2023-04-26T14:15:17.060Z,14.97
2023-04-26T14:17:46.919Z,15.01
2023-04-26T14:20:14.105Z,15.06
2023-04-26T14:22:41.252Z,15.15
2023-04-26T14:25:11.310Z,15.14
2023-04-26T14:27:39.638Z,15.13
2023-04-26T14:30:07.985Z,15.10
2023-04-26T14:32:34.902Z,15.13
2023-04-26T14:35:01.811Z,15.12
2023-04-26T14:37:28.705Z,15.14
2023-04-26T14:39:55.617Z,15.18
2023-04-26T14:42:22.754Z,15.17
2023-04-26T14:44:50.001Z,15.20
2023-04-26T14:47:16.922Z,15.26
2023-04-26T14:49:44.237Z,15.20
2023-04-26T14:52:11.309Z,15.16
2023-04-26T14:54:41.875Z,15.04
2023-04-26T14:57:10.757Z,15.06
2023-04-26T14:59:37.839Z,15.08
2023-04-26T15:02:05.451Z,15.06
2023-04-26T15:04:32.905Z,14.98
2023-04-26T15:07:00.117Z,14.96
2023-04-26T15:09:29.778Z,15.01
2023-04-26T15:11:57.366Z,15.00
2023-04-26T15:14:24.472Z,15.02
2023-04-26T15:16:51.541Z,14.97
2023-04-26T15:19:18.815Z,14.89
2023-04-26T15:21:45.769Z,14.90
2023-04-26T15:24:12.657Z,14.92
2023-04-26T15:26:39.702Z,15.04
2023-04-26T15:29:06.770Z,15.14
2023-04-26T15:31:34.703Z,15.25
2023-04-26T15:34:02.804Z,15.29
2023-04-26T15:36:29.760Z,15.28
2023-04-26T15:38:56.975Z,15.21
2023-04-26T15:41:23.891Z,15.09
2023-04-26T15:43:57.709Z,15.05
2023-04-26T15:46:25.048Z,14.85
2023-04-26T15:48:52.034Z,14.79
2023-04-26T15:51:19.013Z,14.67
2023-04-26T15:53:45.927Z,14.60
2023-04-26T15:56:18.059Z,14.51
2023-04-26T15:58:45.921Z,14.49
2023-04-26T16:01:13.835Z,14.48
2023-04-26T16:03:42.670Z,14.40
2023-04-26T16:06:11.848Z,14.47
2023-04-26T16:08:40.613Z,14.47
2023-04-26T16:11:07.922Z,14.45
2023-04-26T16:13:35.018Z,14.45
2023-04-26T16:16:02.095Z,14.38
2023-04-26T16:18:29.008Z,14.31
2023-04-26T16:21:04.958Z,14.18
2023-04-26T16:23:32.006Z,14.06
2023-04-26T16:25:59.021Z,14.12
2023-04-26T16:28:26.459Z,14.10
2023-04-26T16:30:53.871Z,14.05
2023-04-26T16:33:22.873Z,14.10
2023-04-26T16:35:55.697Z,14.12
2023-04-26T16:38:23.225Z,14.03
2023-04-26T16:40:58.686Z,14.03
2023-04-26T16:43:27.368Z,14.00
2023-04-26T16:46:05.072Z,14.01
2023-04-26T16:48:35.861Z,14.00
2023-04-26T16:51:07.148Z,13.90
2023-04-26T16:53:35.337Z,13.88
2023-04-26T16:56:02.751Z,13.78
2023-04-26T16:58:29.854Z,13.68
2023-04-26T17:00:57.056Z,13.63
2023-04-26T17:03:24.782Z,13.58
2023-04-26T17:05:52.247Z,13.51
2023-04-26T17:08:19.871Z,13.56
2023-04-26T17:10:47.691Z,13.58
2023-04-26T17:13:18.004Z,13.63
2023-04-26T17:15:45.396Z,13.64
2023-04-26T17:18:12.630Z,13.56
2023-04-26T17:20:39.614Z,13.56
2023-04-26T17:23:08.088Z,13.44
2023-04-26T17:25:35.093Z,13.40
2023-04-26T17:28:02.174Z,13.34
2023-04-26T17:30:29.234Z,13.31
2023-04-26T17:32:56.232Z,13.26
2023-04-26T17:35:23.160Z,13.15
2023-04-26T17:37:50.669Z,13.14
2023-04-26T17:40:18.951Z,13.11
2023-04-26T17:42:46.574Z,13.05
2023-04-26T17:45:14.599Z,12.96
2023-04-26T17:47:43.255Z,12.95
2023-04-26T17:50:10.846Z,12.92
2023-04-26T17:52:38.594Z,12.87
2023-04-26T17:55:08.420Z,12.84
2023-04-26T17:57:38.046Z,12.86
2023-04-26T18:00:10.434Z,12.79
2023-04-26T18:02:37.850Z,12.77
2023-04-26T18:05:08.724Z,12.73
2023-04-26T18:07:35.673Z,12.60
2023-04-26T18:10:02.676Z,12.56
2023-04-26T18:12:32.101Z,12.56
2023-04-26T18:14:59.471Z,12.56
2023-04-26T18:17:26.554Z,12.48
2023-04-26T18:19:53.459Z,12.46
2023-04-26T18:22:20.632Z,12.39
2023-04-26T18:24:47.556Z,12.38
2023-04-26T18:27:14.634Z,12.33
2023-04-26T18:29:41.785Z,12.26
2023-04-26T18:32:08.689Z,12.18
2023-04-26T18:34:36.505Z,12.19
2023-04-26T18:37:03.387Z,12.18
2023-04-26T18:39:30.694Z,12.10
2023-04-26T18:41:57.777Z,12.08
2023-04-26T18:44:26.488Z,12.08
2023-04-26T18:46:56.045Z,12.06
2023-04-26T18:49:24.236Z,11.98
2023-04-26T18:51:51.276Z,11.98
2023-04-26T18:54:18.480Z,11.96
2023-04-26T18:56:45.749Z,11.88
2023-04-26T18:59:13.220Z,11.87
2023-04-26T19:01:41.503Z,11.79
2023-04-26T19:04:10.489Z,11.85
2023-04-26T19:06:38.069Z,11.80
2023-04-26T19:09:07.341Z,11.77
2023-04-26T19:11:34.909Z,11.77
2023-04-26T19:14:02.615Z,11.74
2023-04-26T19:16:31.203Z,11.63
2023-04-26T19:18:58.481Z,11.62
2023-04-26T19:21:25.449Z,11.56
2023-04-26T19:23:52.493Z,11.54
2023-04-26T19:26:19.721Z,11.47
2023-04-26T19:28:46.955Z,11.47
2023-04-26T19:31:14.362Z,11.44
2023-04-26T19:33:41.742Z,11.39
2023-04-26T19:36:09.866Z,11.40
2023-04-26T19:38:36.764Z,11.37
2023-04-26T19:41:03.693Z,11.34
2023-04-26T19:43:30.916Z,11.34
2023-04-26T19:45:57.810Z,11.31
2023-04-26T19:48:24.794Z,11.30
2023-04-26T19:50:52.148Z,11.28
2023-04-26T19:53:19.144Z,11.30
2023-04-26T19:55:46.724Z,11.30
2023-04-26T19:58:13.674Z,11.27
2023-04-26T20:00:40.844Z,11.24
2023-04-26T20:03:08.465Z,11.24
2023-04-26T20:05:35.599Z,11.22
2023-04-26T20:08:02.885Z,11.25
2023-04-26T20:10:34.326Z,11.19
2023-04-26T20:13:01.725Z,11.15
2023-04-26T20:15:32.205Z,11.13
2023-04-26T20:18:00.687Z,11.10
2023-04-26T20:20:28.893Z,11.11
2023-04-26T20:22:55.812Z,11.03
2023-04-26T20:25:22.966Z,10.99
2023-04-26T20:27:50.657Z,11.00
2023-04-26T20:30:17.535Z,10.95
2023-04-26T20:32:44.542Z,10.90
2023-04-26T20:35:13.908Z,10.88
2023-04-26T20:37:40.918Z,10.81
2023-04-26T20:40:09.506Z,10.78
2023-04-26T20:42:36.629Z,10.77
2023-04-26T20:45:04.160Z,10.71
2023-04-26T20:47:31.558Z,10.67
2023-04-26T20:49:59.232Z,10.64
2023-04-26T20:52:27.272Z,10.59
2023-04-26T20:54:56.706Z,10.53
2023-04-26T20:57:24.980Z,10.50
2023-04-26T20:59:51.902Z,10.46
2023-04-26T21:02:19.094Z,10.43
2023-04-26T21:04:46.602Z,10.37
2023-04-26T21:07:13.737Z,10.38
2023-04-26T21:09:40.769Z,10.34
2023-04-26T21:12:07.714Z,10.31
2023-04-26T21:14:34.835Z,10.26
2023-04-26T21:17:01.736Z,10.23
2023-04-26T21:19:28.762Z,10.18
2023-04-26T21:21:55.892Z,10.14
2023-04-26T21:24:22.878Z,10.11
2023-04-26T21:26:49.826Z,10.04
2023-04-26T21:29:16.741Z,10.02
2023-04-26T21:31:43.812Z,9.95
2023-04-26T21:34:11.111Z,9.90
2023-04-26T21:36:38.102Z,9.84
2023-04-26T21:39:04.968Z,9.78
2023-04-26T21:41:32.316Z,9.70
2023-04-26T21:43:59.208Z,9.60
2023-04-26T21:46:26.571Z,9.50
2023-04-26T21:48:53.711Z,9.46
2023-04-26T21:51:20.792Z,9.39
2023-04-26T21:53:47.727Z,9.28
2023-04-26T21:56:15.030Z,9.20
2023-04-26T21:58:42.337Z,9.15
2023-04-26T22:01:15.336Z,9.04
2023-04-26T22:03:42.727Z,8.95
2023-04-26T22:06:11.436Z,8.90
2023-04-26T22:08:38.857Z,8.84
2023-04-26T22:11:06.178Z,8.72
2023-04-26T22:13:33.487Z,8.67
2023-04-26T22:16:00.443Z,8.63
2023-04-26T22:18:28.786Z,8.55
2023-04-26T22:20:55.703Z,8.48
2023-04-26T22:23:22.615Z,8.40
2023-04-26T22:25:49.532Z,8.35
2023-04-26T22:28:16.769Z,8.29
2023-04-26T22:30:43.864Z,8.23
2023-04-26T22:33:12.504Z,8.19
2023-04-26T22:35:39.708Z,8.14
2023-04-26T22:38:06.696Z,8.08
2023-04-26T22:40:33.807Z,8.03
2023-04-26T22:43:01.149Z,7.98
2023-04-26T22:45:28.290Z,7.96
2023-04-26T22:47:55.518Z,7.88
2023-04-26T22:50:22.607Z,7.84
2023-04-26T22:52:50.217Z,7.78
2023-04-26T22:55:17.942Z,7.75
2023-04-26T22:57:45.001Z,7.73
2023-04-26T23:00:14.403Z,7.76
2023-04-26T23:02:41.444Z,7.77
2023-04-26T23:05:12.202Z,7.79
2023-04-26T23:07:40.035Z,7.83
2023-04-26T23:10:08.003Z,7.87
2023-04-26T23:12:36.392Z,7.87
2023-04-26T23:15:05.503Z,7.94
2023-04-26T23:17:34.415Z,7.93
2023-04-26T23:20:01.537Z,7.96
2023-04-26T23:22:28.843Z,7.92
2023-04-26T23:24:55.820Z,7.89
2023-04-26T23:27:24.859Z,7.83
2023-04-26T23:29:52.011Z,7.83
2023-04-26T23:32:19.126Z,7.73
2023-04-26T23:34:46.022Z,7.73
2023-04-26T23:37:12.938Z,7.70
2023-04-26T23:39:39.849Z,7.67
2023-04-26T23:42:06.854Z,7.63
2023-04-26T23:44:33.859Z,7.59
2023-04-26T23:47:01.213Z,7.50
2023-04-26T23:49:28.387Z,7.51
2023-04-26T23:51:55.546Z,7.49
2023-04-26T23:54:22.672Z,7.48
2023-04-26T23:56:49.554Z,7.43
2023-04-26T23:59:17.098Z,7.39
